createdAt,value
2018-11-12T00:00:15.723Z,2.73
2018-11-12T00:02:45.833Z,4.83
2018-11-12T00:05:14.337Z,3.00
2018-11-12T00:07:42.988Z,2.37
2018-11-12T00:10:11.421Z,2.87
2018-11-12T00:12:40.030Z,2.20
2018-11-12T00:15:09.589Z,2.50
2018-11-12T00:17:38.043Z,3.10
2018-11-12T00:20:07.427Z,2.23
2018-11-12T00:22:36.187Z,2.17
2018-11-12T00:25:04.647Z,1.50
2018-11-12T00:27:33.409Z,2.33
2018-11-12T00:30:01.881Z,2.13
2018-11-12T00:32:30.612Z,1.90
2018-11-12T00:34:59.106Z,2.43
2018-11-12T00:37:27.533Z,4.40
2018-11-12T00:39:55.978Z,2.40
2018-11-12T00:42:24.401Z,2.47
2018-11-12T00:44:52.804Z,3.20
2018-11-12T00:47:21.190Z,3.13
2018-11-12T00:49:49.801Z,2.30
2018-11-12T00:52:18.184Z,2.17
2018-11-12T00:54:46.627Z,2.07
2018-11-12T00:57:15.103Z,2.17
2018-11-12T00:59:43.552Z,1.80
2018-11-12T01:02:11.993Z,2.80
2018-11-12T01:04:40.404Z,2.63
2018-11-12T01:07:08.827Z,2.57
2018-11-12T01:09:37.328Z,2.63
2018-11-12T01:12:05.997Z,2.00
2018-11-12T01:14:34.530Z,1.97
2018-11-12T01:17:03.112Z,1.70
2018-11-12T01:19:31.535Z,1.93
2018-11-12T01:22:00.026Z,2.97
2018-11-12T01:24:28.543Z,1.80
2018-11-12T01:26:57.068Z,3.70
2018-11-12T01:29:25.776Z,2.17
2018-11-12T01:31:54.239Z,1.70
2018-11-12T01:34:22.669Z,2.23
2018-11-12T01:36:51.128Z,2.70
2018-11-12T01:39:19.572Z,4.23
2018-11-12T01:41:48.153Z,1.60
2018-11-12T01:44:16.544Z,2.53
2018-11-12T01:46:44.970Z,1.70
2018-11-12T01:49:13.460Z,2.40
2018-11-12T01:51:42.112Z,2.13
2018-11-12T01:54:10.477Z,1.93
2018-11-12T01:56:38.985Z,2.13
2018-11-12T01:59:07.327Z,2.40
2018-11-12T02:01:35.830Z,3.10
2018-11-12T02:04:04.256Z,1.80
2018-11-12T02:06:32.715Z,3.53
2018-11-12T02:09:01.307Z,2.13
2018-11-12T02:11:29.752Z,1.70
2018-11-12T02:13:58.128Z,2.57
2018-11-12T02:16:26.494Z,3.00
2018-11-12T02:18:54.900Z,1.67
2018-11-12T02:21:23.396Z,2.30
2018-11-12T02:23:51.822Z,2.17
2018-11-12T02:26:20.273Z,2.87
2018-11-12T02:28:48.650Z,3.17
2018-11-12T02:31:17.095Z,4.67
2018-11-12T02:33:45.533Z,2.67
2018-11-12T02:36:14.021Z,2.40
2018-11-12T02:38:42.436Z,2.67
2018-11-12T02:41:10.824Z,4.03
2018-11-12T02:43:39.221Z,2.57
2018-11-12T02:46:07.618Z,3.03
2018-11-12T02:48:36.067Z,2.07
2018-11-12T02:51:04.893Z,3.37
2018-11-12T02:53:33.325Z,2.47
2018-11-12T02:56:01.744Z,3.50
2018-11-12T02:58:30.242Z,1.63
2018-11-12T03:00:58.813Z,3.77
2018-11-12T03:03:30.592Z,2.63
2018-11-12T03:05:59.147Z,3.80
2018-11-12T03:08:27.533Z,3.03
2018-11-12T03:10:55.995Z,3.20
2018-11-12T03:13:24.446Z,3.87
2018-11-12T03:15:52.898Z,2.90
2018-11-12T03:18:21.293Z,5.93
2018-11-12T03:20:49.649Z,2.73
2018-11-12T03:23:18.168Z,3.70
2018-11-12T03:25:46.636Z,4.93
2018-11-12T03:28:15.044Z,3.20
2018-11-12T03:30:43.504Z,6.43
2018-11-12T03:33:11.913Z,4.20
2018-11-12T03:35:40.278Z,6.20
2018-11-12T03:38:08.668Z,2.83
2018-11-12T03:40:37.062Z,3.10
2018-11-12T03:43:05.956Z,4.50
2018-11-12T03:45:34.566Z,4.30
2018-11-12T03:48:02.942Z,3.60
2018-11-12T03:50:31.361Z,4.93
2018-11-12T03:52:59.800Z,3.77
2018-11-12T03:55:28.253Z,6.00
2018-11-12T03:57:56.904Z,6.23
2018-11-12T04:00:32.506Z,3.87
2018-11-12T04:03:01.021Z,5.40
2018-11-12T04:05:29.387Z,5.47
2018-11-12T04:07:57.767Z,3.37
2018-11-12T04:10:26.382Z,3.83
2018-11-12T04:12:54.866Z,4.37
2018-11-12T04:15:24.553Z,4.77
2018-11-12T04:17:52.948Z,5.50
2018-11-12T04:20:22.545Z,3.27
2018-11-12T04:23:06.465Z,3.50
2018-11-12T04:25:37.316Z,5.83
2018-11-12T04:28:05.894Z,4.30
2018-11-12T04:30:34.481Z,5.63
2018-11-12T04:33:03.000Z,3.23
2018-11-12T04:35:31.444Z,4.10
2018-11-12T04:38:00.025Z,4.43
2018-11-12T04:40:28.390Z,4.67
2018-11-12T04:42:56.828Z,3.93
2018-11-12T04:45:25.967Z,3.73
2018-11-12T04:47:54.880Z,5.53
2018-11-12T04:50:24.592Z,4.50
2018-11-12T04:52:53.634Z,5.77
2018-11-12T04:55:22.849Z,4.43
2018-11-12T04:57:51.203Z,5.20
2018-11-12T05:00:21.775Z,3.93
2018-11-12T05:02:50.356Z,4.67
2018-11-12T05:05:20.232Z,4.87
2018-11-12T05:07:48.779Z,6.37
2018-11-12T05:10:18.501Z,8.80
2018-11-12T05:12:47.628Z,6.77
2018-11-12T05:15:17.328Z,7.03
2018-11-12T05:17:45.768Z,7.70
2018-11-12T05:20:16.401Z,7.13
2018-11-12T05:22:44.788Z,7.10
2018-11-12T05:25:13.242Z,7.17
2018-11-12T05:27:41.633Z,7.37
2018-11-12T05:30:11.990Z,6.77
2018-11-12T05:32:40.658Z,7.70
2018-11-12T05:35:09.177Z,6.53
2018-11-12T05:37:37.674Z,5.63
2018-11-12T05:40:08.269Z,8.93
2018-11-12T05:42:36.882Z,7.27
2018-11-12T05:45:06.184Z,7.10
2018-11-12T05:47:35.019Z,7.30
2018-11-12T05:50:03.516Z,5.03
2018-11-12T05:52:31.898Z,7.37
2018-11-12T05:55:00.569Z,9.07
2018-11-12T05:57:28.995Z,5.37
2018-11-12T05:59:57.448Z,6.47
2018-11-12T06:02:25.984Z,7.87
2018-11-12T06:04:54.493Z,6.30
2018-11-12T06:07:32.897Z,6.67
2018-11-12T06:10:01.357Z,6.17
2018-11-12T06:12:29.832Z,6.03
2018-11-12T06:14:58.320Z,6.03
2018-11-12T06:17:26.932Z,6.43
2018-11-12T06:19:55.421Z,5.50
2018-11-12T06:22:23.855Z,7.30
2018-11-12T06:24:54.465Z,7.63
2018-11-12T06:27:22.924Z,6.77
2018-11-12T06:29:51.380Z,4.93
2018-11-12T06:32:19.890Z,7.00
2018-11-12T06:34:48.376Z,4.83
2018-11-12T06:37:16.785Z,7.20
2018-11-12T06:39:45.278Z,5.67
2018-11-12T06:42:14.264Z,6.33
2018-11-12T06:44:42.645Z,5.57
2018-11-12T06:47:11.057Z,7.17
2018-11-12T06:49:39.486Z,5.80
2018-11-12T06:52:08.073Z,6.63
2018-11-12T06:54:36.554Z,6.30
2018-11-12T06:57:05.286Z,5.27
2018-11-12T06:59:33.692Z,6.03
2018-11-12T07:02:02.249Z,6.03
2018-11-12T07:04:30.679Z,4.73
2018-11-12T07:06:59.102Z,5.83
2018-11-12T07:09:27.766Z,4.90
2018-11-12T07:11:56.308Z,5.80
2018-11-12T07:14:24.743Z,6.03
2018-11-12T07:16:53.184Z,5.53
2018-11-12T07:19:21.584Z,6.83
2018-11-12T07:21:50.023Z,5.63
2018-11-12T07:24:18.486Z,4.80
2018-11-12T07:26:46.912Z,3.50
2018-11-12T07:29:15.357Z,4.20
2018-11-12T07:31:43.825Z,9.20
2018-11-12T07:34:12.392Z,4.67
2018-11-12T07:36:40.853Z,4.77
2018-11-12T07:39:10.273Z,4.60
2018-11-12T07:41:38.732Z,3.90
2018-11-12T07:44:07.470Z,4.47
2018-11-12T07:46:35.875Z,3.63
2018-11-12T07:49:04.450Z,3.20
2018-11-12T07:51:32.926Z,5.37
2018-11-12T07:54:01.407Z,4.70
2018-11-12T07:56:29.940Z,2.43
2018-11-12T07:58:58.348Z,3.47
2018-11-12T08:01:26.737Z,3.00
2018-11-12T08:03:55.176Z,3.37
2018-11-12T08:06:23.624Z,2.97
2018-11-12T08:08:52.110Z,2.60
2018-11-12T08:11:20.532Z,2.90
2018-11-12T08:13:48.999Z,2.03
2018-11-12T08:16:17.432Z,3.10
2018-11-12T08:18:45.998Z,4.43
2018-11-12T08:21:14.394Z,3.23
2018-11-12T08:23:42.812Z,3.03
2018-11-12T08:26:11.283Z,3.40
2018-11-12T08:28:39.688Z,4.93
2018-11-12T08:31:08.129Z,3.90
2018-11-12T08:33:36.584Z,3.87
2018-11-12T08:36:05.019Z,2.17
2018-11-12T08:38:38.009Z,3.90
2018-11-12T08:41:06.605Z,2.67
2018-11-12T08:43:34.993Z,3.10
2018-11-12T08:46:03.556Z,2.67
2018-11-12T08:48:32.012Z,2.97
2018-11-12T08:51:00.328Z,2.53
2018-11-12T08:53:28.774Z,2.40
2018-11-12T08:55:57.249Z,3.20
2018-11-12T08:58:25.684Z,4.13
2018-11-12T09:00:54.205Z,2.30
2018-11-12T09:03:22.520Z,2.43
2018-11-12T09:05:50.971Z,3.22
2018-11-12T09:08:19.341Z,3.30
2018-11-12T09:10:57.606Z,6.60
2018-11-12T09:13:26.056Z,4.57
2018-11-12T09:16:01.152Z,3.97
2018-11-12T09:18:30.745Z,3.47
2018-11-12T09:20:59.137Z,3.13
2018-11-12T09:23:27.525Z,3.13
2018-11-12T09:25:55.902Z,2.73
2018-11-12T09:28:24.274Z,3.47
2018-11-12T09:30:54.272Z,2.40
2018-11-12T09:33:21.265Z,2.60
2018-11-12T09:35:49.737Z,2.93
2018-11-12T09:38:18.305Z,2.30
2018-11-12T09:40:46.707Z,2.73
2018-11-12T09:43:15.137Z,2.30
2018-11-12T09:45:43.630Z,3.03
2018-11-12T09:48:12.009Z,2.50
2018-11-12T09:50:40.601Z,3.67
2018-11-12T09:53:09.073Z,3.13
2018-11-12T09:55:37.521Z,4.40
2018-11-12T09:58:06.954Z,2.40
2018-11-12T10:00:35.622Z,2.87
2018-11-12T10:03:05.075Z,3.80
2018-11-12T10:05:34.370Z,3.57
2018-11-12T10:08:04.660Z,2.63
2018-11-12T10:10:53.244Z,2.43
2018-11-12T10:13:23.409Z,2.63
2018-11-12T10:15:52.265Z,1.60
2018-11-12T10:18:17.775Z,3.07
2018-11-12T10:20:46.165Z,1.40
2018-11-12T10:23:14.557Z,2.80
2018-11-12T10:25:43.053Z,2.23
2018-11-12T10:28:11.533Z,1.77
2018-11-12T10:30:40.130Z,1.50
2018-11-12T10:33:08.905Z,3.70
2018-11-12T10:35:37.323Z,1.57
2018-11-12T10:38:06.329Z,3.30
2018-11-12T10:40:34.988Z,1.93
2018-11-12T10:43:03.626Z,1.43
2018-11-12T10:45:32.520Z,1.47
2018-11-12T10:48:00.958Z,1.47
2018-11-12T10:50:29.365Z,1.27
2018-11-12T10:52:57.800Z,4.67
2018-11-12T10:55:26.755Z,2.80
2018-11-12T10:57:55.101Z,2.27
2018-11-12T11:00:31.852Z,2.30
2018-11-12T11:03:07.367Z,1.37
2018-11-12T11:05:36.738Z,1.10
2018-11-12T11:08:05.278Z,2.17
2018-11-12T11:10:33.837Z,2.60
2018-11-12T11:13:03.441Z,1.40
2018-11-12T11:15:33.045Z,1.50
2018-11-12T11:18:01.485Z,2.60
2018-11-12T11:20:30.104Z,1.70
2018-11-12T11:22:58.839Z,1.20
2018-11-12T11:25:27.307Z,1.50
2018-11-12T11:27:55.693Z,2.47
2018-11-12T11:30:24.148Z,1.40
2018-11-12T11:32:52.711Z,1.17
2018-11-12T11:35:21.745Z,0.90
2018-11-12T11:37:50.306Z,1.50
2018-11-12T11:40:22.063Z,1.67
2018-11-12T11:42:50.473Z,2.60
2018-11-12T11:45:19.392Z,3.23
2018-11-12T11:47:48.981Z,2.00
2018-11-12T11:50:19.583Z,2.00
2018-11-12T11:52:48.050Z,3.07
2018-11-12T11:55:24.392Z,2.30
2018-11-12T11:57:53.307Z,4.07
2018-11-12T12:00:23.322Z,3.90
2018-11-12T12:02:52.649Z,1.87
2018-11-12T12:05:22.226Z,1.00
2018-11-12T12:07:51.446Z,1.50
2018-11-12T12:10:19.885Z,1.20
2018-11-12T12:12:49.314Z,2.15
2018-11-12T12:15:18.993Z,1.47
2018-11-12T12:17:47.602Z,2.27
2018-11-12T12:20:18.481Z,2.33
2018-11-12T12:22:47.096Z,1.80
2018-11-12T12:25:16.530Z,1.70
2018-11-12T12:27:45.598Z,1.60
2018-11-12T12:30:16.445Z,2.10
2018-11-12T12:32:45.977Z,2.07
2018-11-12T12:35:14.664Z,2.33
2018-11-12T12:37:43.685Z,2.90
2018-11-12T12:40:14.027Z,2.90
2018-11-12T12:42:42.566Z,2.90
2018-11-12T12:45:12.958Z,2.90
2018-11-12T12:47:41.548Z,2.43
2018-11-12T12:50:11.172Z,1.53
2018-11-12T12:52:39.512Z,3.47
2018-11-12T12:55:08.966Z,2.40
2018-11-12T12:57:38.549Z,2.40
2018-11-12T13:00:10.701Z,2.30
2018-11-12T13:02:40.088Z,1.97
2018-11-12T13:05:08.529Z,3.47
2018-11-12T13:07:37.108Z,3.77
2018-11-12T13:10:07.110Z,3.03
2018-11-12T13:12:35.548Z,2.30
2018-11-12T13:15:04.660Z,1.70
2018-11-12T13:17:33.075Z,3.43
2018-11-12T13:20:05.920Z,2.27
2018-11-12T13:22:34.432Z,2.50
2018-11-12T13:25:02.945Z,2.70
2018-11-12T13:27:31.333Z,2.47
2018-11-12T13:30:00.199Z,2.30
2018-11-12T13:32:28.483Z,1.93
2018-11-12T13:34:57.333Z,3.13
2018-11-12T13:37:26.036Z,3.50
2018-11-12T13:39:54.792Z,2.97
2018-11-12T13:42:23.225Z,2.83
2018-11-12T13:44:52.509Z,2.93
2018-11-12T13:47:21.044Z,3.20
2018-11-12T13:49:49.581Z,3.10
2018-11-12T13:52:18.073Z,3.10
2018-11-12T13:54:46.732Z,3.10
2018-11-12T13:57:17.128Z,3.07
2018-11-12T13:59:46.951Z,2.70
2018-11-12T14:02:15.506Z,2.00
2018-11-12T14:04:44.425Z,1.50
2018-11-12T14:07:12.946Z,1.87
2018-11-12T14:09:42.638Z,2.17
2018-11-12T14:12:11.248Z,2.30
2018-11-12T14:14:39.717Z,2.80
2018-11-12T14:17:08.561Z,1.67
2018-11-12T14:19:37.000Z,1.57
2018-11-12T14:22:05.664Z,1.60
2018-11-12T14:24:34.462Z,1.50
2018-11-12T14:27:03.911Z,1.47
2018-11-12T14:29:32.373Z,1.30
2018-11-12T14:32:00.942Z,1.87
2018-11-12T14:34:29.570Z,1.73
2018-11-12T14:36:58.029Z,2.53
2018-11-12T14:39:26.500Z,2.50
2018-11-12T14:41:54.874Z,2.17
2018-11-12T14:44:23.282Z,1.57
2018-11-12T14:46:51.739Z,2.53
2018-11-12T14:49:20.252Z,2.23
2018-11-12T14:51:49.647Z,2.60
2018-11-12T14:54:18.168Z,3.87
2018-11-12T14:56:47.150Z,2.93
2018-11-12T14:59:15.733Z,3.00
2018-11-12T15:01:44.235Z,3.37
2018-11-12T15:04:12.684Z,3.67
2018-11-12T15:06:41.100Z,2.77
2018-11-12T15:09:10.742Z,3.77
2018-11-12T15:11:39.468Z,2.43
2018-11-12T15:14:08.544Z,3.40
2018-11-12T15:16:37.446Z,3.37
2018-11-12T15:19:05.818Z,4.37
2018-11-12T15:21:34.209Z,2.33
2018-11-12T15:24:02.715Z,3.70
2018-11-12T15:26:31.177Z,4.50
2018-11-12T15:29:00.143Z,5.17
2018-11-12T15:31:29.402Z,3.27
2018-11-12T15:33:57.912Z,3.50
2018-11-12T15:36:26.566Z,3.13
2018-11-12T15:38:59.498Z,3.40
2018-11-12T15:41:27.894Z,3.20
2018-11-12T15:43:56.295Z,3.90
2018-11-12T15:46:24.757Z,3.80
2018-11-12T15:48:53.370Z,5.63
2018-11-12T15:51:21.809Z,4.07
2018-11-12T15:53:50.307Z,3.93
2018-11-12T15:56:18.707Z,5.27
2018-11-12T15:58:47.590Z,4.10
2018-11-12T16:01:17.097Z,8.13
2018-11-12T16:03:45.597Z,6.00
2018-11-12T16:06:14.209Z,5.70
2018-11-12T16:08:48.216Z,5.90
2018-11-12T16:11:16.841Z,4.47
2018-11-12T16:13:54.976Z,5.23
2018-11-12T16:16:24.597Z,7.20
2018-11-12T16:18:53.044Z,5.83
2018-11-12T16:21:21.569Z,7.17
2018-11-12T16:23:57.600Z,7.10
2018-11-12T16:26:26.084Z,6.33
2018-11-12T16:28:54.793Z,7.37
2018-11-12T16:31:23.308Z,6.43
2018-11-12T16:33:51.830Z,7.27
2018-11-12T16:36:30.256Z,8.87
2018-11-12T16:38:58.714Z,3.47
2018-11-12T16:41:27.686Z,5.17
2018-11-12T16:43:56.173Z,3.93
2018-11-12T16:46:24.753Z,6.53
2018-11-12T16:48:53.219Z,4.40
2018-11-12T16:51:22.346Z,7.00
2018-11-12T16:53:50.718Z,6.23
2018-11-12T16:56:19.205Z,4.80
2018-11-12T16:58:51.170Z,5.50
2018-11-12T17:01:19.809Z,6.63
2018-11-12T17:03:48.221Z,6.53
2018-11-12T17:06:16.728Z,6.23
2018-11-12T17:08:45.292Z,6.43
2018-11-12T17:11:13.829Z,6.13
2018-11-12T17:13:44.277Z,5.37
2018-11-12T17:16:12.673Z,6.13
2018-11-12T17:18:42.217Z,7.00
2018-11-12T17:21:10.720Z,7.37
2018-11-12T17:23:40.221Z,6.67
2018-11-12T17:26:08.748Z,8.37
2018-11-12T17:28:37.230Z,5.57
2018-11-12T17:31:06.743Z,7.90
2018-11-12T17:33:35.656Z,8.07
2018-11-12T17:36:04.196Z,8.93
2018-11-12T17:38:36.808Z,7.27
2018-11-12T17:41:06.089Z,8.27
2018-11-12T17:43:34.973Z,6.70
2018-11-12T17:46:03.628Z,7.23
2018-11-12T17:48:32.262Z,7.97
2018-11-12T17:51:00.745Z,7.00
2018-11-12T17:53:29.589Z,7.87
2018-11-12T17:55:58.113Z,6.33
2018-11-12T17:58:26.685Z,8.60
2018-11-12T18:00:55.180Z,8.17
2018-11-12T18:03:23.760Z,7.57
2018-11-12T18:05:52.328Z,7.57
2018-11-12T18:08:20.755Z,8.87
2018-11-12T18:10:49.354Z,5.47
2018-11-12T18:13:17.800Z,6.07
2018-11-12T18:15:47.475Z,6.33
2018-11-12T18:18:15.928Z,7.43
2018-11-12T18:20:44.381Z,9.37
2018-11-12T18:23:12.971Z,8.90
2018-11-12T18:25:41.249Z,8.77
2018-11-12T18:28:09.789Z,6.77
2018-11-12T18:30:42.029Z,9.83
2018-11-12T18:33:10.303Z,8.50
2018-11-12T18:35:38.793Z,8.83
2018-11-12T18:38:07.233Z,8.47
2018-11-12T18:40:35.610Z,10.37
2018-11-12T18:43:05.612Z,7.97
2018-11-12T18:45:34.109Z,12.03
2018-11-12T18:48:02.617Z,8.00
2018-11-12T18:50:31.675Z,11.93
2018-11-12T18:53:01.242Z,9.27
2018-11-12T18:55:29.607Z,8.80
2018-11-12T18:57:58.743Z,10.70
2018-11-12T19:00:27.561Z,11.17
2018-11-12T19:02:56.140Z,12.10
2018-11-12T19:05:25.975Z,9.70
2018-11-12T19:07:55.551Z,9.63
2018-11-12T19:10:29.574Z,8.60
2018-11-12T19:12:57.928Z,9.47
2018-11-12T19:15:27.982Z,9.70
2018-11-12T19:18:03.752Z,9.30
2018-11-12T19:20:32.160Z,10.20
2018-11-12T19:23:00.592Z,12.13
2018-11-12T19:25:29.108Z,8.77
2018-11-12T19:27:57.681Z,8.93
2018-11-12T19:30:27.388Z,10.40
2018-11-12T19:33:05.772Z,11.33
2018-11-12T19:35:34.525Z,10.03
2018-11-12T19:38:03.118Z,10.27
2018-11-12T19:40:32.687Z,12.23
2018-11-12T19:43:01.103Z,11.00
2018-11-12T19:45:29.757Z,10.67
2018-11-12T19:47:58.109Z,11.33
2018-11-12T19:50:27.809Z,12.13
2018-11-12T19:52:57.247Z,11.83
2018-11-12T19:55:25.854Z,11.03
2018-11-12T19:58:00.213Z,10.20
2018-11-12T20:00:29.481Z,11.63
2018-11-12T20:02:59.189Z,11.40
2018-11-12T20:05:27.668Z,11.47
2018-11-12T20:07:56.124Z,11.50
2018-11-12T20:10:26.922Z,10.17
2018-11-12T20:13:05.525Z,12.10
2018-11-12T20:15:33.939Z,11.80
2018-11-12T20:18:02.373Z,11.30
2018-11-12T20:20:31.968Z,12.23
2018-11-12T20:23:00.456Z,12.70
2018-11-12T20:25:28.969Z,13.33
2018-11-12T20:27:58.276Z,13.93
2018-11-12T20:30:30.504Z,12.00
2018-11-12T20:32:59.005Z,12.13
2018-11-12T20:35:27.537Z,15.43
2018-11-12T20:37:56.114Z,12.40
2018-11-12T20:40:24.591Z,14.53
2018-11-12T20:42:52.962Z,12.77
2018-11-12T20:45:22.265Z,12.83
2018-11-12T20:47:52.064Z,11.90
2018-11-12T20:50:20.498Z,13.70
2018-11-12T20:52:48.969Z,11.83
2018-11-12T20:55:20.806Z,16.67
2018-11-12T20:57:49.174Z,13.90
2018-11-12T21:00:20.465Z,13.90
2018-11-12T21:02:50.097Z,12.10
2018-11-12T21:05:27.037Z,12.37
2018-11-12T21:07:55.503Z,12.77
2018-11-12T21:10:24.022Z,18.20
2018-11-12T21:12:55.726Z,14.27
2018-11-12T21:15:25.034Z,15.73
2018-11-12T21:17:53.654Z,14.30
2018-11-12T21:20:24.065Z,14.27
2018-11-12T21:22:52.624Z,16.10
2018-11-12T21:25:22.532Z,14.43
2018-11-12T21:27:51.039Z,12.03
2018-11-12T21:30:22.001Z,15.30
2018-11-12T21:32:50.505Z,12.97
2018-11-12T21:35:18.901Z,18.70
2018-11-12T21:37:47.947Z,16.20
2018-11-12T21:40:19.704Z,14.40
2018-11-12T21:42:48.196Z,15.17
2018-11-12T21:45:18.233Z,14.40
2018-11-12T21:47:46.750Z,17.17
2018-11-12T21:50:17.401Z,17.33
2018-11-12T21:52:46.019Z,20.10
2018-11-12T21:55:14.546Z,19.97
2018-11-12T21:57:43.462Z,18.90
2018-11-12T22:00:16.892Z,16.80
2018-11-12T22:02:46.644Z,19.10
2018-11-12T22:05:15.188Z,16.57
2018-11-12T22:07:43.711Z,16.70
2018-11-12T22:10:13.453Z,11.67
2018-11-12T22:12:43.296Z,15.13
2018-11-12T22:15:12.171Z,12.80
2018-11-12T22:17:40.552Z,13.40
2018-11-12T22:20:10.680Z,15.40
2018-11-12T22:22:39.983Z,16.23
2018-11-12T22:25:10.354Z,11.17
2018-11-12T22:27:39.268Z,14.23
2018-11-12T22:30:09.107Z,16.90
2018-11-12T22:32:37.493Z,14.23
2018-11-12T22:35:06.221Z,15.03
2018-11-12T22:37:34.805Z,10.30
2018-11-12T22:40:03.224Z,15.53
2018-11-12T22:42:31.634Z,15.00
2018-11-12T22:45:00.033Z,13.13
2018-11-12T22:47:28.581Z,11.80
2018-11-12T22:49:57.044Z,14.77
2018-11-12T22:52:25.591Z,11.10
2018-11-12T22:54:54.005Z,9.60
2018-11-12T22:57:22.376Z,9.90
2018-11-12T22:59:51.783Z,11.53
2018-11-12T23:02:20.115Z,14.23
2018-11-12T23:04:48.513Z,9.60
2018-11-12T23:07:16.914Z,11.17
2018-11-12T23:09:45.362Z,12.23
2018-11-12T23:12:13.766Z,13.20
2018-11-12T23:14:42.245Z,14.37
2018-11-12T23:17:10.661Z,11.40
2018-11-12T23:19:39.200Z,15.57
2018-11-12T23:22:07.602Z,13.00
2018-11-12T23:24:36.089Z,13.77
2018-11-12T23:27:04.484Z,14.63
2018-11-12T23:29:33.004Z,12.80
2018-11-12T23:32:01.358Z,14.30
2018-11-12T23:34:29.797Z,16.00
2018-11-12T23:36:58.220Z,15.00
2018-11-12T23:39:26.634Z,17.67
2018-11-12T23:41:55.009Z,15.87
2018-11-12T23:44:23.381Z,15.73
2018-11-12T23:46:52.040Z,15.10
2018-11-12T23:49:20.420Z,17.60
2018-11-12T23:51:48.792Z,17.90
2018-11-12T23:54:17.228Z,13.87
2018-11-12T23:56:45.673Z,12.77
2018-11-12T23:59:14.138Z,11.63
